createdAt,value
2022-12-28T00:02:09.623Z,7.17
2022-12-28T00:06:15.208Z,7.19
2022-12-28T00:10:18.384Z,7.15
2022-12-28T00:14:41.413Z,7.24
2022-12-28T00:18:44.743Z,7.28
2022-12-28T00:22:49.278Z,7.36
2022-12-28T00:26:53.096Z,7.35
2022-12-28T00:30:58.858Z,7.39
2022-12-28T00:35:01.957Z,7.28
2022-12-28T00:39:06.584Z,7.27
2022-12-28T00:43:10.309Z,7.21
2022-12-28T00:47:13.403Z,7.25
2022-12-28T00:51:18.264Z,7.17
2022-12-28T00:55:22.720Z,7.16
2022-12-28T00:59:25.796Z,7.18
2022-12-28T01:03:29.267Z,7.33
2022-12-28T01:07:34.215Z,7.39
2022-12-28T01:11:39.087Z,7.50
2022-12-28T01:15:42.161Z,7.50
2022-12-28T01:19:51.994Z,7.55
2022-12-28T01:23:58.953Z,7.70
2022-12-28T01:28:03.375Z,7.72
2022-12-28T01:32:06.662Z,7.75
2022-12-28T01:36:11.144Z,7.78
2022-12-28T01:40:16.763Z,7.82
2022-12-28T01:44:52.025Z,7.92
2022-12-28T01:49:01.023Z,7.89
2022-12-28T01:53:06.703Z,8.08
2022-12-28T01:57:09.954Z,8.07
2022-12-28T02:01:14.462Z,8.09
2022-12-28T02:05:18.388Z,8.11
2022-12-28T02:09:26.873Z,8.12
2022-12-28T02:13:30.298Z,8.10
2022-12-28T02:17:35.558Z,8.21
2022-12-28T02:21:52.355Z,8.25
2022-12-28T02:26:19.796Z,8.28
2022-12-28T02:30:25.135Z,8.27
2022-12-28T02:34:33.358Z,8.18
2022-12-28T02:38:41.326Z,8.27
2022-12-28T02:42:46.374Z,8.28
2022-12-28T02:47:08.567Z,8.32
2022-12-28T02:51:32.456Z,8.32
2022-12-28T02:56:10.912Z,8.31
2022-12-28T03:00:17.988Z,8.35
2022-12-28T03:04:30.495Z,8.36
2022-12-28T03:08:42.391Z,8.42
2022-12-28T03:12:51.440Z,8.41
2022-12-28T03:17:18.946Z,8.38
2022-12-28T03:21:42.515Z,8.47
2022-12-28T03:26:05.651Z,8.50
2022-12-28T03:30:37.816Z,8.53
2022-12-28T03:34:42.137Z,8.59
2022-12-28T03:38:53.527Z,8.61
2022-12-28T03:43:21.548Z,8.61
2022-12-28T03:47:28.771Z,8.65
2022-12-28T03:51:33.578Z,8.65
2022-12-28T03:55:43.763Z,8.69
2022-12-28T03:59:47.248Z,8.72
2022-12-28T04:03:50.620Z,8.72
2022-12-28T04:07:53.883Z,8.69
2022-12-28T04:11:58.520Z,8.69
2022-12-28T04:16:17.002Z,8.72
2022-12-28T04:20:20.876Z,8.75
2022-12-28T04:24:26.742Z,8.82
2022-12-28T04:28:32.580Z,8.89
2022-12-28T04:32:56.616Z,8.95
2022-12-28T04:36:59.889Z,8.93
2022-12-28T04:41:04.287Z,9.00
2022-12-28T04:45:10.004Z,9.03
2022-12-28T04:49:13.051Z,9.02
2022-12-28T04:53:16.112Z,9.12
2022-12-28T04:57:19.343Z,9.11
2022-12-28T05:01:24.861Z,9.19
2022-12-28T05:05:28.293Z,9.17
2022-12-28T05:09:31.337Z,9.16
2022-12-28T05:13:35.154Z,9.23
2022-12-28T05:17:39.570Z,9.25
2022-12-28T05:21:42.853Z,9.22
2022-12-28T05:25:45.968Z,9.30
2022-12-28T05:29:49.239Z,9.29
2022-12-28T05:33:54.747Z,9.26
2022-12-28T05:37:58.030Z,9.22
2022-12-28T05:42:02.709Z,9.18
2022-12-28T05:46:08.184Z,9.22
2022-12-28T05:50:12.652Z,9.18
2022-12-28T05:54:15.781Z,9.17
2022-12-28T05:58:18.855Z,9.16
2022-12-28T06:02:25.717Z,9.21
2022-12-28T06:06:31.571Z,9.27
2022-12-28T06:10:34.993Z,9.29
2022-12-28T06:14:38.108Z,9.29
2022-12-28T06:18:41.273Z,9.20
2022-12-28T06:22:46.019Z,9.14
2022-12-28T06:26:51.181Z,9.12
2022-12-28T06:31:01.974Z,9.12
2022-12-28T06:35:05.500Z,9.15
2022-12-28T06:39:11.686Z,9.17
2022-12-28T06:43:14.785Z,9.23
2022-12-28T06:47:17.846Z,9.33
2022-12-28T06:51:22.603Z,9.36
2022-12-28T06:55:27.205Z,9.43
2022-12-28T06:59:30.323Z,9.40
2022-12-28T07:03:33.410Z,9.32
2022-12-28T07:07:36.592Z,9.35
2022-12-28T07:11:41.182Z,9.35
2022-12-28T07:15:44.525Z,9.30
2022-12-28T07:19:47.880Z,9.34
2022-12-28T07:23:51.649Z,9.34
2022-12-28T07:27:56.168Z,9.30
2022-12-28T07:31:59.245Z,9.29
2022-12-28T07:36:02.699Z,9.23
2022-12-28T07:40:06.865Z,9.18
2022-12-28T07:44:11.275Z,9.21
2022-12-28T07:48:14.466Z,9.21
2022-12-28T07:52:17.786Z,9.19
2022-12-28T07:56:22.110Z,9.18
2022-12-28T08:00:26.571Z,9.22
2022-12-28T08:04:29.826Z,9.23
2022-12-28T08:08:36.016Z,9.25
2022-12-28T08:12:39.119Z,9.31
2022-12-28T08:16:45.055Z,9.39
2022-12-28T08:20:50.662Z,9.44
2022-12-28T08:24:54.537Z,9.42
2022-12-28T08:28:59.384Z,9.47
2022-12-28T08:33:03.916Z,9.53
2022-12-28T08:37:06.973Z,9.55
2022-12-28T08:41:13.861Z,9.58
2022-12-28T08:45:17.308Z,9.60
2022-12-28T08:49:21.739Z,9.62
2022-12-28T08:53:25.177Z,9.65
2022-12-28T08:57:28.228Z,9.72
2022-12-28T09:01:38.973Z,9.70
2022-12-28T09:05:50.044Z,9.78
2022-12-28T09:09:57.322Z,9.71
2022-12-28T09:14:00.702Z,9.77
2022-12-28T09:18:03.827Z,9.87
2022-12-28T09:22:08.256Z,9.86
2022-12-28T09:26:13.158Z,9.91
2022-12-28T09:30:16.393Z,9.94
2022-12-28T09:34:37.361Z,10.01
2022-12-28T09:38:42.537Z,10.02
2022-12-28T09:42:45.886Z,10.02
2022-12-28T09:46:54.914Z,9.98
2022-12-28T09:50:58.407Z,10.03
2022-12-28T09:55:12.235Z,9.98
2022-12-28T09:59:19.128Z,10.05
2022-12-28T10:03:27.186Z,10.12
2022-12-28T10:07:30.335Z,10.10
2022-12-28T10:11:40.601Z,10.19
2022-12-28T10:15:43.793Z,10.19
2022-12-28T10:19:47.958Z,10.25
2022-12-28T10:24:29.758Z,10.33
2022-12-28T10:28:23.541Z,10.40
2022-12-28T10:32:26.955Z,10.34
2022-12-28T10:36:35.093Z,10.41
2022-12-28T10:40:40.518Z,10.48
2022-12-28T10:44:45.261Z,10.45
2022-12-28T10:48:52.771Z,10.47
2022-12-28T10:52:59.563Z,10.44
2022-12-28T10:57:03.125Z,10.50
2022-12-28T11:01:19.437Z,10.56
2022-12-28T11:05:24.438Z,10.57
2022-12-28T11:09:29.850Z,10.65
2022-12-28T11:13:33.896Z,10.68
2022-12-28T11:17:38.651Z,10.67
2022-12-28T11:21:43.847Z,10.70
2022-12-28T11:25:47.173Z,10.66
2022-12-28T11:29:52.519Z,10.69
2022-12-28T11:34:02.486Z,10.75
2022-12-28T11:38:08.013Z,10.87
2022-12-28T11:46:42.702Z,10.81
2022-12-28T11:50:54.502Z,10.70
2022-12-28T11:54:59.331Z,10.71
2022-12-28T11:59:07.490Z,10.65
2022-12-28T12:03:10.862Z,10.57
2022-12-28T12:07:46.426Z,10.63
2022-12-28T12:11:52.396Z,10.60
2022-12-28T12:16:00.179Z,10.54
2022-12-28T12:20:09.607Z,10.54
2022-12-28T12:24:26.776Z,10.47
2022-12-28T12:28:38.128Z,10.47
2022-12-28T12:32:46.530Z,10.48
2022-12-28T12:37:17.987Z,10.45
2022-12-28T12:41:32.739Z,10.47
2022-12-28T12:45:48.809Z,10.47
2022-12-28T12:50:21.443Z,10.43
2022-12-28T12:54:37.902Z,10.46
2022-12-28T12:58:53.726Z,10.48
2022-12-28T13:03:16.772Z,10.46
2022-12-28T13:07:22.599Z,10.46
2022-12-28T13:11:26.399Z,10.45
2022-12-28T13:15:30.372Z,10.47
2022-12-28T13:19:35.006Z,10.43
2022-12-28T13:23:45.185Z,10.43
2022-12-28T13:27:49.238Z,10.47
2022-12-28T13:31:53.259Z,10.56
2022-12-28T13:36:13.918Z,10.60
2022-12-28T13:40:18.948Z,10.59
2022-12-28T13:44:32.487Z,10.64
2022-12-28T13:48:37.980Z,10.66
2022-12-28T13:52:46.956Z,10.72
2022-12-28T13:56:50.401Z,10.75
2022-12-28T14:00:56.864Z,10.73
2022-12-28T14:05:00.504Z,10.74
2022-12-28T14:09:05.999Z,10.71
2022-12-28T14:13:11.548Z,10.65
2022-12-28T14:17:15.066Z,10.66
2022-12-28T14:21:18.201Z,10.67
2022-12-28T14:25:24.074Z,10.70
2022-12-28T14:29:31.159Z,10.69
2022-12-28T14:33:36.982Z,10.65
2022-12-28T14:37:41.979Z,10.63
2022-12-28T14:41:47.949Z,10.67
2022-12-28T14:46:07.351Z,10.66
2022-12-28T14:50:19.287Z,10.65
2022-12-28T14:54:24.748Z,10.62
2022-12-28T14:58:33.623Z,10.67
2022-12-28T15:02:43.307Z,10.72
2022-12-28T15:06:46.959Z,10.75
2022-12-28T15:10:52.760Z,10.75
2022-12-28T15:14:57.119Z,10.78
2022-12-28T15:19:00.511Z,10.74
2022-12-28T15:23:03.781Z,10.72
2022-12-28T15:27:07.165Z,10.75
2022-12-28T15:31:15.798Z,10.78
2022-12-28T15:35:19.410Z,10.89
2022-12-28T15:39:23.113Z,10.83
2022-12-28T15:43:26.233Z,10.81
2022-12-28T15:47:30.753Z,10.77
2022-12-28T15:51:34.185Z,10.81
2022-12-28T15:55:37.325Z,10.86
2022-12-28T15:59:40.526Z,10.86
2022-12-28T16:03:45.155Z,10.82
2022-12-28T16:07:48.261Z,10.89
2022-12-28T16:11:55.031Z,10.84
2022-12-28T16:15:58.532Z,10.82
2022-12-28T16:20:03.000Z,10.89
2022-12-28T16:24:06.541Z,10.91
2022-12-28T16:28:09.643Z,10.85
2022-12-28T16:32:12.841Z,10.70
2022-12-28T16:36:17.477Z,10.52
2022-12-28T16:40:20.540Z,10.42
2022-12-28T16:44:26.968Z,10.27
2022-12-28T16:48:30.094Z,10.28
2022-12-28T16:52:34.557Z,10.37
2022-12-28T16:56:37.643Z,10.36
2022-12-28T17:00:40.859Z,10.46
2022-12-28T17:04:44.273Z,10.39
2022-12-28T17:08:48.802Z,10.47
2022-12-28T17:12:52.001Z,10.47
2022-12-28T17:16:55.178Z,10.44
2022-12-28T17:21:03.347Z,10.50
2022-12-28T17:25:10.926Z,10.50
2022-12-28T17:29:14.021Z,10.49
2022-12-28T17:33:17.157Z,10.44
2022-12-28T17:37:20.289Z,10.38
2022-12-28T17:41:26.559Z,10.33
2022-12-28T17:45:29.781Z,10.23
2022-12-28T17:49:32.913Z,10.16
2022-12-28T17:53:37.065Z,9.97
2022-12-28T17:57:41.522Z,9.89
2022-12-28T18:01:45.264Z,9.77
2022-12-28T18:05:49.125Z,9.67
2022-12-28T18:09:52.193Z,9.72
2022-12-28T18:13:59.141Z,9.51
2022-12-28T18:18:02.304Z,9.47
2022-12-28T18:22:05.569Z,9.40
2022-12-28T18:26:11.203Z,9.34
2022-12-28T18:30:18.292Z,9.40
2022-12-28T18:34:21.514Z,9.44
2022-12-28T18:38:24.738Z,9.50
2022-12-28T18:42:30.407Z,9.49
2022-12-28T18:46:34.993Z,9.48
2022-12-28T18:50:38.263Z,9.42
2022-12-28T18:54:41.426Z,9.45
2022-12-28T18:58:45.291Z,9.41
2022-12-28T19:02:53.024Z,9.46
2022-12-28T19:06:56.814Z,9.44
2022-12-28T19:11:00.240Z,9.51
2022-12-28T19:15:03.390Z,9.73
2022-12-28T19:19:08.203Z,9.72
2022-12-28T19:23:12.039Z,9.82
2022-12-28T19:27:15.171Z,10.03
2022-12-28T19:31:18.300Z,10.07
2022-12-28T19:35:22.847Z,10.09
2022-12-28T19:39:25.956Z,10.22
2022-12-28T19:43:29.346Z,10.43
2022-12-28T19:47:32.449Z,10.50
2022-12-28T19:51:37.003Z,10.49
2022-12-28T19:55:40.778Z,10.59
2022-12-28T19:59:44.125Z,10.70
2022-12-28T20:03:47.804Z,10.91
2022-12-28T20:07:52.489Z,10.86
2022-12-28T20:11:55.641Z,10.96
2022-12-28T20:15:59.053Z,10.95
2022-12-28T20:20:02.283Z,11.04
2022-12-28T20:24:07.816Z,11.08
2022-12-28T20:28:11.124Z,11.08
2022-12-28T20:32:14.854Z,11.13
2022-12-28T20:36:19.964Z,11.13
2022-12-28T20:40:24.682Z,11.19
2022-12-28T20:44:31.340Z,11.23
2022-12-28T20:48:34.722Z,11.24
2022-12-28T20:52:37.904Z,11.31
2022-12-28T20:56:45.809Z,11.31
2022-12-28T21:00:51.019Z,11.35
2022-12-28T21:04:54.129Z,11.44
2022-12-28T21:08:57.565Z,11.48
2022-12-28T21:13:01.985Z,11.48
2022-12-28T21:17:05.193Z,11.45
2022-12-28T21:21:15.097Z,11.51
2022-12-28T21:25:18.280Z,11.52
2022-12-28T21:29:26.032Z,11.62
2022-12-28T21:33:29.393Z,11.59
2022-12-28T21:37:35.964Z,11.59
2022-12-28T21:41:50.920Z,11.57
2022-12-28T21:46:02.521Z,11.58
2022-12-28T21:50:09.592Z,11.39
2022-12-28T21:54:14.380Z,11.43
2022-12-28T21:58:17.556Z,11.47
2022-12-28T22:02:39.556Z,11.38
2022-12-28T22:06:42.853Z,11.43
2022-12-28T22:11:11.631Z,11.46
2022-12-28T22:15:33.853Z,11.44
2022-12-28T22:19:38.488Z,11.49
2022-12-28T22:23:41.662Z,11.50
2022-12-28T22:27:44.726Z,11.50
2022-12-28T22:31:47.848Z,11.51
2022-12-28T22:35:52.263Z,11.50
2022-12-28T22:39:55.374Z,11.59
2022-12-28T22:43:58.840Z,11.64
2022-12-28T22:48:01.962Z,11.62
2022-12-28T22:52:06.580Z,11.63
2022-12-28T22:56:16.196Z,11.69
2022-12-28T23:00:19.374Z,11.67
2022-12-28T23:04:22.478Z,11.78
2022-12-28T23:08:26.969Z,11.81
2022-12-28T23:12:31.083Z,11.84
2022-12-28T23:16:34.185Z,11.83
2022-12-28T23:20:57.928Z,11.88
2022-12-28T23:25:19.697Z,11.87
2022-12-28T23:29:27.304Z,11.86
2022-12-28T23:33:33.976Z,11.78
2022-12-28T23:37:37.198Z,11.80
2022-12-28T23:41:50.291Z,11.91
2022-12-28T23:45:53.557Z,11.84
2022-12-28T23:49:56.755Z,11.78
2022-12-28T23:53:59.795Z,11.66
2022-12-28T23:58:04.682Z,11.57
